Terminal Aerodrome Forecast
Issued by NWS

Home | Current Version | Previous Version | Text Only | Print | Product List | Glossary On
Versions: 1 2 3 4 5 6 7 8 9 10 11 12 13 14 15 16 17 18 19 20 21 22 23 24 25 26
000
FTUS44 KMAF 120300 AAD
TAFCNM
TAF AMD
KCNM 120323Z 1203/1224 12015G24KT P6SM SCT150 SCT250
     FM120400 15009KT P6SM SCT150 SCT250
     FM121600 13008KT P6SM SCT080 SCT150 SCT250=

USA.gov is the U.S. government's official web portal to all federal, state and local government web resources and services.